Ramon Margalef — EAEF — position and weather

sailwx.info

Track history (hours):
 
Tides and Currents Weather Stations Pressure Air Temp Water Temp Dewpoint Dewpoint Depression Visibility Wind Speed Wind Dir Waves Ship Positions

Ramon Margalef

Last reported at 2017-Sep-21 22:51 UTC. Time now 2017-Sep-22 08:27 UTC.
Position N 46°06' W 003°21'.

Length 46 m; draft 5.5 m.

Type: Other ship. MMSI: 224511000.

Date/timePositionNaut miles runAvg speedWind from/ knotsBaromVisibWave heightAir tempDewpointWater temp
2017-Sep-21 22:51N 46°06' W 003°21'3 5.3
2017-Sep-21 22:16N 46°06' W 003°16'1 1.8
2017-Sep-21 21:48N 46°07' W 003°15'0 0.7
2017-Sep-21 21:27N 46°07' W 003°15'2 0.7
2017-Sep-21 18:54N 46°09' W 003°16'3 1.2
2017-Sep-21 16:35N 46°07' W 003°20'110.0
2017-Sep-21 16:28N 46°08' W 003°19'510.0
2017-Sep-21 16:00N 46°10' W 003°13'17 9.6
2017-Sep-21 14:16N 46°19' W 002°52'1 3.8
2017-Sep-21 13:59N 46°20' W 002°51'0 0.3
2017-Sep-21 13:30N 46°20' W 002°51'3 1.5
2017-Sep-21 11:40N 46°21' W 002°48'1 9.5
2017-Sep-21 11:30N 46°22' W 002°46'5 9.7
2017-Sep-21 11:00N 46°24' W 002°40'5 9.6
2017-Sep-21 10:26N 46°27' W 002°33'4 9.5
2017-Sep-21 10:00N 46°29' W 002°28'510.0
2017-Sep-21 09:30N 46°31' W 002°22'510.3
2017-Sep-21 09:00N 46°34' W 002°15'1 1.6
2017-Sep-21 08:30N 46°34' W 002°14'2 3.4
2017-Sep-21 08:00N 46°33' W 002°16'2 3.4
2017-Sep-21 07:30N 46°33' W 002°18'2 3.5
2017-Sep-21 07:00N 46°32' W 002°21'510.2
2017-Sep-21 06:30N 46°34' W 002°14'510.4
2017-Sep-21 06:00N 46°37' W 002°08'3 6.4
2017-Sep-21 05:30N 46°35' W 002°12'2 4.7
2017-Sep-21 05:00N 46°34' W 002°15'0 0.2
2017-Sep-21 04:30N 46°34' W 002°14'1 3.0
2017-Sep-21 04:00N 46°33' W 002°14'2 4.2
2017-Sep-21 03:30N 46°30' W 002°14'2 5.0
2017-Sep-21 03:00N 46°28' W 002°14'3 5.2
2017-Sep-21 02:29N 46°25' W 002°14'3 5.2
2017-Sep-21 02:00N 46°23' W 002°15'3 5.3
2017-Sep-21 01:25N 46°20' W 002°15'1 2.4
2017-Sep-21 01:00N 46°19' W 002°15'1 1.2
2017-Sep-21 00:30N 46°18' W 002°15'1 1.1
2017-Sep-21 00:00N 46°18' W 002°16'1 1.3
2017-Sep-20 23:30N 46°17' W 002°16'0 0.9
2017-Sep-20 23:00N 46°17' W 002°16'0 0.9
2017-Sep-20 22:30N 46°16' W 002°16'0 0.9
2017-Sep-20 22:00N 46°16' W 002°16'0 0.7
2017-Sep-20 21:30N 46°15' W 002°16'0 0.5
2017-Sep-20 21:00N 46°15' W 002°15'1 2.1
2017-Sep-20 20:30N 46°16' W 002°14'2 4.3
2017-Sep-20 20:00N 46°17' W 002°11'4 7.9
2017-Sep-20 19:30N 46°19' W 002°06'510.7
2017-Sep-20 19:00N 46°21' W 001°60'1 2.6
2017-Sep-20 18:30N 46°22' W 001°58'2 4.0
2017-Sep-20 18:00N 46°23' W 001°56'1 2.1
2017-Sep-20 17:30N 46°24' W 001°54'2 3.3
2017-Sep-20 17:00N 46°23' W 001°56'5 9.9
2017-Sep-20 16:30N 46°20' W 002°03'510.2
2017-Sep-20 15:59N 46°18' W 002°09'510.3
2017-Sep-20 15:29N 46°15' W 002°16'5 9.1
2017-Sep-20 14:58N 46°16' W 002°22'9 9.5
2017-Sep-20 14:00N 46°13' W 002°35'610.0
2017-Sep-20 13:22N 46°07' W 002°36'1710.1
2017-Sep-20 11:41N 45°59' W 002°57'0 1.3
2017-Sep-20 11:22N 45°59' W 002°58'0 0.7
2017-Sep-20 10:40N 45°58' W 002°58'1 2.1
2017-Sep-20 10:24N 45°58' W 002°59'2 2.7
2017-Sep-20 09:34N 45°57' W 003°01'110.1
2017-Sep-20 09:30N 45°57' W 003°00'1 1.3
2017-Sep-20 08:41N 45°58' W 002°59'26 7.4
2017-Sep-20 05:14N 45°44' W 003°31'0 0.0
2017-Sep-20 04:06N 45°44' W 003°31'0 0.6
2017-Sep-20 03:59N 45°45' W 003°31'  
2017-Sep-16 14:43N 43°56' W 003°23'2 9.6
2017-Sep-16 14:29N 43°53' W 003°23'5 9.6
2017-Sep-16 14:00N 43°49' W 003°23'5 9.4
2017-Sep-16 13:30N 43°44' W 003°25'1 3.0
2017-Sep-16 13:00N 43°44' W 003°23'1 2.7
2017-Sep-16 12:30N 43°45' W 003°23'2 3.4
2017-Sep-16 12:00N 43°47' W 003°23'2 3.8
2017-Sep-16 11:30N 43°49' W 003°23'0 0.2
2017-Sep-16 11:00N 43°49' W 003°23'5 9.5
2017-Sep-16 10:30N 43°44' W 003°23'2 5.0
2017-Sep-16 10:00N 43°42' W 003°23'1 3.0
2017-Sep-16 09:30N 43°40' W 003°23'5 9.2
2017-Sep-16 09:00N 43°36' W 003°23'2 3.9
2017-Sep-16 08:30N 43°34' W 003°22'2 3.4
2017-Sep-16 08:00N 43°36' W 003°22'2 4.2
2017-Sep-16 07:30N 43°38' W 003°23'3 5.1
2017-Sep-16 07:00N 43°35' W 003°23'5 9.8
2017-Sep-16 06:30N 43°30' W 003°23'2 2.6
2017-Sep-16 05:51N 43°28' W 003°23'0 0.9
2017-Sep-16 05:31N 43°29' W 003°23'0 0.2
2017-Sep-16 05:01N 43°29' W 003°23'1 1.5
2017-Sep-16 04:30N 43°29' W 003°23'0 0.9
2017-Sep-16 04:00N 43°30' W 003°23'2 3.7
2017-Sep-16 03:30N 43°29' W 003°21'2 3.9
2017-Sep-16 03:00N 43°29' W 003°18'0 0.8
2017-Sep-16 02:30N 43°29' W 003°19'1 1.1
2017-Sep-16 02:00N 43°29' W 003°20'1 1.1
2017-Sep-16 01:30N 43°29' W 003°20'3 5.9
2017-Sep-16 01:00N 43°32' W 003°18'5 9.7
2017-Sep-16 00:30N 43°36' W 003°14'5 9.8
2017-Sep-16 00:00N 43°40' W 003°10'5 9.8
2017-Sep-15 23:30N 43°44' W 003°06'5 9.1
2017-Sep-15 23:00N 43°47' W 003°03'1 1.2
2017-Sep-15 22:30N 43°47' W 003°02'2 3.7
2017-Sep-15 22:00N 43°45' W 003°03'2 3.7
2017-Sep-15 21:30N 43°43' W 003°03'1 1.4
2017-Sep-15 21:00N 43°44' W 003°02'710.0
2017-Sep-15 20:18N 43°51' W 003°02'3 0.9
2017-Sep-15 16:28N 43°54' W 003°02'5 9.3
2017-Sep-15 15:56N 43°49' W 003°03'4 9.3
2017-Sep-15 15:30N 43°45' W 003°03'5 9.3
2017-Sep-15 15:00N 43°41' W 003°03'4 7.9
2017-Sep-15 14:30N 43°37' W 003°03'2 4.2
2017-Sep-15 14:00N 43°35' W 003°03'5 9.2
2017-Sep-15 13:30N 43°30' W 003°02'5 9.2
2017-Sep-15 13:00N 43°26' W 003°02'1 1.4
2017-Sep-15 12:30N 43°25' W 003°02'3 5.4
2017-Sep-15 12:00N 43°26' W 002°59'510.2
2017-Sep-15 11:30N 43°29' W 002°54'6 9.8
2017-Sep-15 10:51N 43°29' W 002°45'12 8.8
2017-Sep-15 09:33N 43°27' W 002°29'0 3.6
2017-Sep-15 09:29N 43°27' W 002°29'17 9.2
2017-Sep-15 07:37N 43°23' W 002°06'1 9.3
2017-Sep-15 07:28N 43°23' W 002°04'4 9.2
2017-Sep-15 07:00N 43°22' W 001°59'  
Track history (hours):
 
Tides and Currents Weather Stations Pressure Air Temp Water Temp Dewpoint Dewpoint Depression Visibility Wind Speed Wind Dir Waves Ship Positions

Ramon Margalef

Last reported at 2017-Sep-21 22:51 UTC. Time now 2017-Sep-22 08:27 UTC.
Position N 46°06' W 003°21'.

Length 46 m; draft 5.5 m.

Type: Other ship. MMSI: 224511000.

Date/timePositionNaut miles runAvg speedWind from/ knotsBaromVisibWave heightAir tempDewpointWater temp
2017-Sep-21 22:51N 46°06' W 003°21'3 5.3
2017-Sep-21 22:16N 46°06' W 003°16'1 1.8
2017-Sep-21 21:48N 46°07' W 003°15'0 0.7
2017-Sep-21 21:27N 46°07' W 003°15'2 0.7
2017-Sep-21 18:54N 46°09' W 003°16'3 1.2
2017-Sep-21 16:35N 46°07' W 003°20'110.0
2017-Sep-21 16:28N 46°08' W 003°19'510.0
2017-Sep-21 16:00N 46°10' W 003°13'17 9.6
2017-Sep-21 14:16N 46°19' W 002°52'1 3.8
2017-Sep-21 13:59N 46°20' W 002°51'0 0.3
2017-Sep-21 13:30N 46°20' W 002°51'3 1.5
2017-Sep-21 11:40N 46°21' W 002°48'1 9.5
2017-Sep-21 11:30N 46°22' W 002°46'5 9.7
2017-Sep-21 11:00N 46°24' W 002°40'5 9.6
2017-Sep-21 10:26N 46°27' W 002°33'4 9.5
2017-Sep-21 10:00N 46°29' W 002°28'510.0
2017-Sep-21 09:30N 46°31' W 002°22'510.3
2017-Sep-21 09:00N 46°34' W 002°15'1 1.6
2017-Sep-21 08:30N 46°34' W 002°14'2 3.4
2017-Sep-21 08:00N 46°33' W 002°16'2 3.4
2017-Sep-21 07:30N 46°33' W 002°18'2 3.5
2017-Sep-21 07:00N 46°32' W 002°21'510.2
2017-Sep-21 06:30N 46°34' W 002°14'510.4
2017-Sep-21 06:00N 46°37' W 002°08'3 6.4
2017-Sep-21 05:30N 46°35' W 002°12'2 4.7
2017-Sep-21 05:00N 46°34' W 002°15'0 0.2
2017-Sep-21 04:30N 46°34' W 002°14'1 3.0
2017-Sep-21 04:00N 46°33' W 002°14'2 4.2
2017-Sep-21 03:30N 46°30' W 002°14'2 5.0
2017-Sep-21 03:00N 46°28' W 002°14'3 5.2
2017-Sep-21 02:29N 46°25' W 002°14'3 5.2
2017-Sep-21 02:00N 46°23' W 002°15'3 5.3
2017-Sep-21 01:25N 46°20' W 002°15'1 2.4
2017-Sep-21 01:00N 46°19' W 002°15'1 1.2
2017-Sep-21 00:30N 46°18' W 002°15'1 1.1
2017-Sep-21 00:00N 46°18' W 002°16'1 1.3
2017-Sep-20 23:30N 46°17' W 002°16'0 0.9
2017-Sep-20 23:00N 46°17' W 002°16'0 0.9
2017-Sep-20 22:30N 46°16' W 002°16'0 0.9
2017-Sep-20 22:00N 46°16' W 002°16'0 0.7
2017-Sep-20 21:30N 46°15' W 002°16'0 0.5
2017-Sep-20 21:00N 46°15' W 002°15'1 2.1
2017-Sep-20 20:30N 46°16' W 002°14'2 4.3
2017-Sep-20 20:00N 46°17' W 002°11'4 7.9
2017-Sep-20 19:30N 46°19' W 002°06'510.7
2017-Sep-20 19:00N 46°21' W 001°60'1 2.6
2017-Sep-20 18:30N 46°22' W 001°58'2 4.0
2017-Sep-20 18:00N 46°23' W 001°56'1 2.1
2017-Sep-20 17:30N 46°24' W 001°54'2 3.3
2017-Sep-20 17:00N 46°23' W 001°56'5 9.9
2017-Sep-20 16:30N 46°20' W 002°03'510.2
2017-Sep-20 15:59N 46°18' W 002°09'510.3
2017-Sep-20 15:29N 46°15' W 002°16'5 9.1
2017-Sep-20 14:58N 46°16' W 002°22'9 9.5
2017-Sep-20 14:00N 46°13' W 002°35'610.0
2017-Sep-20 13:22N 46°07' W 002°36'1710.1
2017-Sep-20 11:41N 45°59' W 002°57'0 1.3
2017-Sep-20 11:22N 45°59' W 002°58'0 0.7
2017-Sep-20 10:40N 45°58' W 002°58'1 2.1
2017-Sep-20 10:24N 45°58' W 002°59'2 2.7
2017-Sep-20 09:34N 45°57' W 003°01'110.1
2017-Sep-20 09:30N 45°57' W 003°00'1 1.3
2017-Sep-20 08:41N 45°58' W 002°59'26 7.4
2017-Sep-20 05:14N 45°44' W 003°31'0 0.0
2017-Sep-20 04:06N 45°44' W 003°31'0 0.6
2017-Sep-20 03:59N 45°45' W 003°31'  
2017-Sep-16 14:43N 43°56' W 003°23'2 9.6
2017-Sep-16 14:29N 43°53' W 003°23'5 9.6
2017-Sep-16 14:00N 43°49' W 003°23'5 9.4
2017-Sep-16 13:30N 43°44' W 003°25'1 3.0
2017-Sep-16 13:00N 43°44' W 003°23'1 2.7
2017-Sep-16 12:30N 43°45' W 003°23'2 3.4
2017-Sep-16 12:00N 43°47' W 003°23'2 3.8
2017-Sep-16 11:30N 43°49' W 003°23'0 0.2
2017-Sep-16 11:00N 43°49' W 003°23'5 9.5
2017-Sep-16 10:30N 43°44' W 003°23'2 5.0
2017-Sep-16 10:00N 43°42' W 003°23'1 3.0
2017-Sep-16 09:30N 43°40' W 003°23'5 9.2
2017-Sep-16 09:00N 43°36' W 003°23'2 3.9
2017-Sep-16 08:30N 43°34' W 003°22'2 3.4
2017-Sep-16 08:00N 43°36' W 003°22'2 4.2
2017-Sep-16 07:30N 43°38' W 003°23'3 5.1
2017-Sep-16 07:00N 43°35' W 003°23'5 9.8
2017-Sep-16 06:30N 43°30' W 003°23'2 2.6
2017-Sep-16 05:51N 43°28' W 003°23'0 0.9
2017-Sep-16 05:31N 43°29' W 003°23'0 0.2
2017-Sep-16 05:01N 43°29' W 003°23'1 1.5
2017-Sep-16 04:30N 43°29' W 003°23'0 0.9
2017-Sep-16 04:00N 43°30' W 003°23'2 3.7
2017-Sep-16 03:30N 43°29' W 003°21'2 3.9
2017-Sep-16 03:00N 43°29' W 003°18'0 0.8
2017-Sep-16 02:30N 43°29' W 003°19'1 1.1
2017-Sep-16 02:00N 43°29' W 003°20'1 1.1
2017-Sep-16 01:30N 43°29' W 003°20'3 5.9
2017-Sep-16 01:00N 43°32' W 003°18'5 9.7
2017-Sep-16 00:30N 43°36' W 003°14'5 9.8
2017-Sep-16 00:00N 43°40' W 003°10'5 9.8
2017-Sep-15 23:30N 43°44' W 003°06'5 9.1
2017-Sep-15 23:00N 43°47' W 003°03'1 1.2
2017-Sep-15 22:30N 43°47' W 003°02'2 3.7
2017-Sep-15 22:00N 43°45' W 003°03'2 3.7
2017-Sep-15 21:30N 43°43' W 003°03'1 1.4
2017-Sep-15 21:00N 43°44' W 003°02'710.0
2017-Sep-15 20:18N 43°51' W 003°02'3 0.9
2017-Sep-15 16:28N 43°54' W 003°02'5 9.3
2017-Sep-15 15:56N 43°49' W 003°03'4 9.3
2017-Sep-15 15:30N 43°45' W 003°03'5 9.3
2017-Sep-15 15:00N 43°41' W 003°03'4 7.9
2017-Sep-15 14:30N 43°37' W 003°03'2 4.2
2017-Sep-15 14:00N 43°35' W 003°03'5 9.2
2017-Sep-15 13:30N 43°30' W 003°02'5 9.2
2017-Sep-15 13:00N 43°26' W 003°02'1 1.4
2017-Sep-15 12:30N 43°25' W 003°02'3 5.4
2017-Sep-15 12:00N 43°26' W 002°59'510.2
2017-Sep-15 11:30N 43°29' W 002°54'6 9.8
2017-Sep-15 10:51N 43°29' W 002°45'12 8.8
2017-Sep-15 09:33N 43°27' W 002°29'0 3.6
2017-Sep-15 09:29N 43°27' W 002°29'17 9.2
2017-Sep-15 07:37N 43°23' W 002°06'1 9.3
2017-Sep-15 07:28N 43°23' W 002°04'4 9.2
2017-Sep-15 07:00N 43°22' W 001°59'  

Dump ship's entire track history